Time;durP1;ratioP1;P1;durP2;ratioP2;P2;SDS_P1;SDS_P2;PMS_P1;PMS_P2;Temp;Humidity;BMP_temperature;BMP_pressure;BME280_temperature;BME280_humidity;BME280_pressure;Samples;Min_cycle;Max_cycle;Signal;HPM_P1;HPM_P2
2023/12/09 00:00:37;;;;;;;4.25;2.80;;;36.60;99.90;;;;;;4883032;29;20516;-87
2023/12/09 00:03:09;;;;;;;4.15;2.72;;;36.70;99.90;;;;;;4876749;29;20279;-90
2023/12/09 00:05:39;;;;;;;3.58;2.75;;;36.90;99.90;;;;;;4872496;29;20203;-84
2023/12/09 05:00:28;;;;;;;9.30;4.07;;;33.60;99.90;;;;;;5131865;27;20533;-82
2023/12/09 05:02:59;;;;;;;10.10;4.07;;;33.00;99.90;;;;;;5131712;28;20186;-82
2023/12/09 05:05:30;;;;;;;7.43;3.60;;;32.90;99.90;;;;;;5131642;28;20193;-81
2023/12/09 05:08:01;;;;;;;8.82;3.70;;;32.90;99.90;;;;;;5131271;28;20529;-81
2023/12/09 05:10:31;;;;;;;6.60;3.50;;;32.80;99.90;;;;;;5127035;28;20230;-83
2023/12/09 05:13:02;;;;;;;7.53;3.70;;;32.70;99.90;;;;;;5113817;28;20195;-81
2023/12/09 05:15:35;;;;;;;9.93;3.78;;;32.80;99.90;;;;;;5130989;28;20230;-81
2023/12/09 05:18:06;;;;;;;9.57;4.00;;;32.80;99.90;;;;;;5130922;28;20697;-81
2023/12/09 05:20:39;;;;;;;6.25;3.72;;;32.90;99.90;;;;;;5131215;28;20187;-80
2023/12/09 05:23:10;;;;;;;5.95;3.60;;;32.90;99.90;;;;;;5131157;28;20542;-83
2023/12/09 05:25:42;;;;;;;7.82;3.75;;;32.90;99.90;;;;;;5130443;28;20194;-81
2023/12/09 05:28:12;;;;;;;7.97;3.90;;;33.00;99.90;;;;;;5131324;28;20201;-82
2023/12/09 05:30:47;;;;;;;8.68;3.80;;;32.90;99.90;;;;;;5131332;28;20658;-81
2023/12/09 05:33:18;;;;;;;7.57;3.80;;;32.80;99.90;;;;;;5131032;28;20209;-81
2023/12/09 05:35:48;;;;;;;9.75;3.85;;;32.80;99.90;;;;;;5131051;28;20634;-80
2023/12/09 05:38:19;;;;;;;12.70;4.00;;;32.80;99.90;;;;;;5130598;28;20215;-81
2023/12/09 05:40:50;;;;;;;10.20;4.13;;;32.80;99.90;;;;;;5130816;28;20270;-82
2023/12/09 05:43:21;;;;;;;9.57;4.43;;;32.70;99.90;;;;;;5130319;28;20597;-82
2023/12/09 05:45:53;;;;;;;9.55;3.80;;;32.70;99.90;;;;;;5130862;27;20191;-80
2023/12/09 05:48:24;;;;;;;8.55;4.07;;;32.80;99.90;;;;;;5129050;27;20196;-82
2023/12/09 05:50:55;;;;;;;11.20;4.43;;;32.90;99.90;;;;;;5126801;28;20215;-80
2023/12/09 05:53:26;;;;;;;9.75;4.00;;;33.10;99.90;;;;;;5130767;27;20638;-81
2023/12/09 05:55:57;;;;;;;7.90;4.10;;;33.20;99.90;;;;;;5127430;27;20188;-84
2023/12/09 05:58:27;;;;;;;9.98;4.22;;;33.10;99.90;;;;;;5110154;28;20238;-81
2023/12/09 06:01:00;;;;;;;6.53;3.75;;;33.10;99.90;;;;;;5098538;28;20199;-81
2023/12/09 06:03:31;;;;;;;7.97;3.78;;;33.20;99.90;;;;;;5096449;28;20287;-80
2023/12/09 06:06:02;;;;;;;9.00;4.22;;;33.30;99.90;;;;;;5096670;28;20184;-80
2023/12/09 06:08:33;;;;;;;5.97;3.53;;;33.30;99.90;;;;;;5096797;28;20196;-79
2023/12/09 06:11:04;;;;;;;8.38;3.65;;;33.30;99.90;;;;;;5095327;28;20192;-82
2023/12/09 06:13:35;;;;;;;5.15;3.53;;;33.40;99.90;;;;;;5095111;28;20188;-81
2023/12/09 06:16:08;;;;;;;5.38;3.65;;;33.50;99.90;;;;;;5096152;28;20195;-82
2023/12/09 06:18:39;;;;;;;5.80;3.80;;;33.50;99.90;;;;;;5096029;28;20215;-83
2023/12/09 06:21:10;;;;;;;4.88;3.30;;;33.60;99.90;;;;;;5095433;28;20271;-84
2023/12/09 06:23:42;;;;;;;4.38;3.38;;;33.60;99.90;;;;;;5105743;28;20191;-81
2023/12/09 06:26:12;;;;;;;4.53;3.50;;;33.70;99.90;;;;;;5105244;28;20636;-81
2023/12/09 06:28:43;;;;;;;5.60;3.28;;;33.80;99.90;;;;;;5099533;28;20184;-83
2023/12/09 06:31:16;;;;;;;3.25;2.97;;;33.90;99.90;;;;;;5107043;28;20658;-81
2023/12/09 06:33:47;;;;;;;4.32;2.40;;;34.10;99.90;;;;;;5116269;28;20198;-80
2023/12/09 06:36:17;;;;;;;2.90;2.45;;;34.20;99.90;;;;;;5097263;28;20194;-81
2023/12/09 06:38:48;;;;;;;2.50;2.30;;;34.30;99.90;;;;;;5095233;28;20569;-81
2023/12/09 06:49:15;;;;;;;2.83;2.53;;;34.50;99.90;;;;;;5124966;23;20266;-76
2023/12/09 06:51:46;;;;;;;3.90;2.70;;;34.60;99.90;;;;;;5002897;28;20199;-77
2023/12/09 06:54:16;;;;;;;3.78;2.63;;;34.60;99.90;;;;;;5003145;28;20195;-78
2023/12/09 06:56:47;;;;;;;3.45;2.83;;;34.70;99.90;;;;;;5015072;28;20194;-77
2023/12/09 06:59:18;;;;;;;3.08;2.70;;;34.70;99.90;;;;;;5014883;28;20554;-77
2023/12/09 07:01:49;;;;;;;3.38;2.60;;;34.70;99.90;;;;;;5015007;28;20550;-77
2023/12/09 07:04:22;;;;;;;3.10;2.55;;;34.60;99.90;;;;;;5013328;28;20222;-77
2023/12/09 07:06:53;;;;;;;2.83;2.50;;;34.50;99.90;;;;;;5015174;28;20194;-77
2023/12/09 07:09:23;;;;;;;3.45;2.70;;;34.40;99.90;;;;;;5014825;28;20663;-77
2023/12/09 07:11:54;;;;;;;3.33;2.80;;;34.40;99.90;;;;;;5012187;28;20226;-78
2023/12/09 07:14:25;;;;;;;4.28;2.88;;;34.40;99.90;;;;;;5015257;28;20191;-78
2023/12/09 07:16:56;;;;;;;3.97;2.70;;;34.40;99.90;;;;;;5014955;28;20190;-77
2023/12/09 07:19:31;;;;;;;5.53;3.03;;;34.50;99.90;;;;;;5013653;28;20577;-77
2023/12/09 07:22:03;;;;;;;4.95;3.17;;;34.60;99.90;;;;;;5013781;28;20190;-77
2023/12/09 07:24:34;;;;;;;6.05;3.50;;;34.60;99.90;;;;;;5014490;28;20193;-78
2023/12/09 07:27:04;;;;;;;4.70;3.50;;;34.60;99.90;;;;;;5006428;28;20564;-76
2023/12/09 07:29:35;;;;;;;5.03;3.42;;;34.50;99.90;;;;;;5014316;28;20195;-76
2023/12/09 07:32:06;;;;;;;5.13;3.72;;;34.40;99.90;;;;;;5007543;28;20195;-80
2023/12/09 07:34:39;;;;;;;6.40;3.78;;;34.30;99.90;;;;;;5011651;28;20198;-77
2023/12/09 07:37:11;;;;;;;5.93;3.78;;;34.10;99.90;;;;;;5013038;28;20548;-77
2023/12/09 07:39:42;;;;;;;6.47;3.80;;;34.00;99.90;;;;;;5013786;28;20309;-76
2023/12/09 07:42:13;;;;;;;5.97;3.47;;;33.90;99.90;;;;;;5014060;28;20206;-77
2023/12/09 07:44:43;;;;;;;9.75;3.65;;;33.80;99.90;;;;;;5013637;28;20203;-78
2023/12/09 07:47:15;;;;;;;7.10;3.38;;;33.60;99.90;;;;;;5013024;28;20227;-78
2023/12/09 07:49:47;;;;;;;7.88;3.83;;;33.50;99.90;;;;;;5013559;28;20199;-78
2023/12/09 07:52:18;;;;;;;8.80;3.42;;;33.40;99.90;;;;;;5008387;28;20203;-78
2023/12/09 07:54:49;;;;;;;7.57;3.40;;;33.20;99.90;;;;;;5012787;28;20191;-81
2023/12/09 07:57:20;;;;;;;4.45;3.13;;;33.10;99.90;;;;;;5016761;28;20199;-77
2023/12/09 07:59:51;;;;;;;7.85;3.38;;;33.00;99.90;;;;;;5014248;28;20223;-84
2023/12/09 08:02:21;;;;;;;5.95;3.13;;;32.90;99.90;;;;;;5006847;28;20221;-79
2023/12/09 08:04:54;;;;;;;7.07;3.33;;;32.90;99.90;;;;;;5007959;28;20191;-86
2023/12/09 08:07:25;;;;;;;6.65;3.42;;;32.80;99.90;;;;;;5012134;28;20205;-82
2023/12/09 08:09:56;;;;;;;6.85;3.00;;;32.70;99.90;;;;;;5013659;28;20646;-77
2023/12/09 08:12:27;;;;;;;8.55;3.47;;;32.60;99.90;;;;;;5012847;28;20229;-78
2023/12/09 08:14:58;;;;;;;5.88;3.28;;;32.60;99.90;;;;;;5007654;28;20205;-80
2023/12/09 08:17:28;;;;;;;6.32;3.10;;;32.50;99.90;;;;;;5007271;28;20199;-77
2023/12/09 08:20:01;;;;;;;5.05;3.10;;;32.40;99.90;;;;;;5012889;28;20312;-77
2023/12/09 08:22:32;;;;;;;9.35;3.80;;;32.30;99.90;;;;;;5012224;28;20234;-78
2023/12/09 08:25:03;;;;;;;12.15;3.45;;;32.00;99.90;;;;;;5012828;28;20664;-81
2023/12/09 08:27:34;;;;;;;12.63;4.00;;;31.70;99.90;;;;;;5010423;28;20195;-78
2023/12/09 08:30:05;;;;;;;14.43;4.00;;;31.40;99.90;;;;;;5011882;28;20213;-80
2023/12/09 08:32:41;;;;;;;16.83;4.18;;;31.00;99.90;;;;;;5007537;28;20199;-88
2023/12/09 08:35:14;;;;;;;18.83;4.63;;;30.40;99.90;;;;;;5007337;28;20190;-77
2023/12/09 08:37:45;;;;;;;19.88;4.60;;;29.90;99.90;;;;;;5003514;28;20201;-83
2023/12/09 08:40:17;;;;;;;19.60;4.70;;;29.30;99.90;;;;;;5013108;28;20219;-81
2023/12/09 08:42:48;;;;;;;24.30;5.18;;;28.90;99.90;;;;;;5013241;28;20199;-85
2023/12/09 08:45:19;;;;;;;19.73;5.25;;;28.60;99.90;;;;;;5013499;28;20290;-87
2023/12/09 08:47:50;;;;;;;26.10;5.32;;;28.20;99.90;;;;;;5003328;28;20240;-78
2023/12/09 08:50:23;;;;;;;22.20;5.57;;;28.00;99.90;;;;;;5009507;28;20209;-82
2023/12/09 08:52:54;;;;;;;21.00;5.80;;;27.90;99.90;;;;;;5012746;28;20207;-82
2023/12/09 08:55:25;;;;;;;20.13;5.03;;;27.70;99.90;;;;;;5013742;28;20198;-77
2023/12/09 08:57:55;;;;;;;20.77;4.65;;;27.50;99.90;;;;;;5008176;28;20599;-81
2023/12/09 09:00:27;;;;;;;30.42;6.63;;;27.20;99.90;;;;;;5012886;28;20241;-80
2023/12/09 09:02:58;;;;;;;24.30;5.95;;;26.90;99.90;;;;;;5012329;28;20205;-77
2023/12/09 09:05:31;;;;;;;29.95;6.57;;;26.60;99.90;;;;;;5007690;28;20539;-79
2023/12/09 09:08:01;;;;;;;22.33;5.95;;;26.40;99.90;;;;;;5005912;28;20203;-78
2023/12/09 09:10:34;;;;;;;29.88;6.38;;;26.20;99.90;;;;;;5002665;28;20209;-76
2023/12/09 09:13:05;;;;;;;27.90;6.38;;;26.00;99.90;;;;;;5013299;28;20195;-87
2023/12/09 09:15:37;;;;;;;24.23;6.18;;;25.80;99.90;;;;;;5011558;28;20201;-86
2023/12/09 09:18:07;;;;;;;23.83;7.28;;;25.60;99.90;;;;;;5012732;28;20225;-79
2023/12/09 09:20:42;;;;;;;22.50;6.07;;;25.60;99.90;;;;;;5009655;28;20217;-79
2023/12/09 09:23:13;;;;;;;31.98;6.90;;;25.50;99.90;;;;;;5010375;28;20202;-80
2023/12/09 09:25:44;;;;;;;30.65;6.93;;;25.40;99.90;;;;;;5013029;28;20195;-82
2023/12/09 09:28:15;;;;;;;29.25;7.13;;;25.40;99.90;;;;;;5012603;28;20237;-77
2023/12/09 09:30:45;;;;;;;26.88;6.75;;;25.50;99.90;;;;;;5012266;28;20650;-78
2023/12/09 09:33:17;;;;;;;25.15;7.30;;;25.40;99.90;;;;;;5013023;28;20222;-78
2023/12/09 09:35:51;;;;;;;26.98;6.50;;;25.40;99.90;;;;;;5011997;28;20230;-78
2023/12/09 09:38:22;;;;;;;25.95;6.53;;;25.30;99.90;;;;;;5009935;28;20191;-82
2023/12/09 09:40:53;;;;;;;26.38;6.78;;;25.30;99.90;;;;;;5015847;28;20218;-76
2023/12/09 09:43:27;;;;;;;30.40;6.85;;;25.20;99.90;;;;;;5015438;28;20198;-82
2023/12/09 09:46:03;;;;;;;25.40;6.57;;;25.20;99.90;;;;;;5016115;28;20201;-83
2023/12/09 09:48:38;;;;;;;24.60;6.35;;;25.20;99.90;;;;;;5015049;28;20234;-77
2023/12/09 09:51:15;;;;;;;26.77;6.40;;;25.20;99.90;;;;;;5015199;28;20198;-84
2023/12/09 09:53:54;;;;;;;26.08;5.90;;;25.10;99.90;;;;;;5013244;28;20205;-82
2023/12/09 09:56:25;;;;;;;25.77;6.38;;;25.00;99.90;;;;;;5010222;28;20201;-83
2023/12/09 09:58:56;;;;;;;31.25;6.72;;;24.90;99.90;;;;;;5010929;28;20217;-84
2023/12/09 10:01:28;;;;;;;28.00;6.18;;;24.80;99.90;;;;;;5010592;28;20215;-79
2023/12/09 10:03:59;;;;;;;29.75;6.95;;;24.80;99.90;;;;;;5006442;28;20573;-84
2023/12/09 10:06:33;;;;;;;23.60;6.38;;;24.80;99.90;;;;;;5014836;28;20195;-83
2023/12/09 10:09:04;;;;;;;36.97;7.30;;;24.70;99.90;;;;;;5012585;28;20211;-88
2023/12/09 10:11:34;;;;;;;23.02;6.25;;;24.70;99.90;;;;;;5014913;28;20213;-86
2023/12/09 10:14:06;;;;;;;28.00;6.60;;;24.70;99.90;;;;;;5010547;28;20200;-88
2023/12/09 10:16:38;;;;;;;23.42;6.30;;;24.60;99.90;;;;;;5009088;28;20626;-86
2023/12/09 10:19:16;;;;;;;24.70;5.90;;;24.50;99.90;;;;;;5011987;28;20195;-86
2023/12/09 10:21:49;;;;;;;21.83;5.38;;;24.40;99.90;;;;;;5012408;28;20202;-88
2023/12/09 10:24:20;;;;;;;27.75;5.78;;;24.40;99.90;;;;;;5015903;28;20205;-90
2023/12/09 10:26:51;;;;;;;21.08;6.35;;;24.30;99.90;;;;;;5015561;28;20282;-84
2023/12/09 10:29:22;;;;;;;20.15;5.32;;;24.30;99.90;;;;;;5005104;28;20195;-78
2023/12/09 10:31:53;;;;;;;23.58;6.03;;;24.30;99.90;;;;;;5014796;28;20577;-83
2023/12/09 10:34:24;;;;;;;29.27;6.35;;;24.30;99.90;;;;;;5016018;28;20274;-86
2023/12/09 10:36:57;;;;;;;23.63;6.40;;;24.30;99.90;;;;;;5006434;28;20191;-84
2023/12/09 10:39:28;;;;;;;27.27;6.20;;;24.30;99.90;;;;;;5015251;28;20207;-84
2023/12/09 10:42:00;;;;;;;26.15;5.55;;;24.30;99.90;;;;;;5008706;28;20250;-75
2023/12/09 10:44:34;;;;;;;24.92;5.57;;;24.20;99.90;;;;;;5010941;28;20205;-83
2023/12/09 10:47:05;;;;;;;32.97;6.20;;;24.30;99.90;;;;;;5015132;28;20419;-82
2023/12/09 10:49:36;;;;;;;26.98;5.72;;;24.20;99.90;;;;;;5010966;28;20205;-79
2023/12/09 10:52:09;;;;;;;22.15;5.07;;;24.20;99.90;;;;;;5011932;28;20536;-78
2023/12/09 10:54:41;;;;;;;26.52;5.38;;;24.20;99.90;;;;;;5008752;28;20199;-84
2023/12/09 10:57:12;;;;;;;25.27;5.45;;;24.20;99.90;;;;;;5013316;28;20218;-86
2023/12/09 10:59:44;;;;;;;27.33;5.97;;;24.20;99.90;;;;;;5004831;28;20215;-88
2023/12/09 11:02:17;;;;;;;20.63;5.32;;;24.30;99.90;;;;;;5013391;28;20658;-82
2023/12/09 11:04:49;;;;;;;20.98;4.78;;;24.20;99.90;;;;;;5015087;28;20202;-83
2023/12/09 11:07:22;;;;;;;26.13;5.30;;;24.20;99.90;;;;;;5004809;28;20207;-90
2023/12/09 11:09:54;;;;;;;15.65;4.80;;;24.10;99.90;;;;;;5014068;28;20195;-83
2023/12/09 11:12:30;;;;;;;18.10;4.35;;;24.00;99.90;;;;;;5013920;28;20195;-83
2023/12/09 11:15:18;;;;;;;26.05;4.43;;;24.00;99.90;;;;;;5014377;28;20658;-87
2023/12/09 11:17:49;;;;;;;16.73;4.30;;;24.00;99.90;;;;;;5009664;28;20205;-81
2023/12/09 11:20:20;;;;;;;20.98;4.65;;;23.90;99.90;;;;;;5014673;28;20225;-76
2023/12/09 11:22:53;;;;;;;18.88;4.03;;;24.00;99.90;;;;;;5014571;28;20203;-83
2023/12/09 11:25:25;;;;;;;14.88;4.18;;;24.00;99.90;;;;;;5015000;28;20194;-84
2023/12/09 11:27:58;;;;;;;18.05;3.80;;;24.00;99.90;;;;;;5014962;28;20280;-82
2023/12/09 11:30:36;;;;;;;12.57;3.50;;;23.90;99.90;;;;;;5014052;28;20285;-82
2023/12/09 11:33:07;;;;;;;15.60;3.50;;;23.90;99.90;;;;;;5009556;28;20541;-87
2023/12/09 11:35:39;;;;;;;13.65;3.45;;;23.90;99.90;;;;;;5009929;28;20278;-84
2023/12/09 11:38:13;;;;;;;12.68;3.00;;;23.90;99.90;;;;;;5008643;28;20201;-84
2023/12/09 11:40:46;;;;;;;13.95;3.08;;;24.00;99.90;;;;;;5014571;28;20222;-78
2023/12/09 11:43:18;;;;;;;11.27;2.92;;;23.90;99.90;;;;;;5010290;28;20555;-91
2023/12/09 11:45:49;;;;;;;11.63;2.60;;;23.90;99.90;;;;;;5003622;28;20204;-81
2023/12/09 11:48:21;;;;;;;15.50;4.28;;;23.90;99.90;;;;;;5007360;28;20242;-77
2023/12/09 11:50:52;;;;;;;14.27;2.92;;;23.90;99.90;;;;;;5011286;28;20241;-83
2023/12/09 11:53:24;;;;;;;11.02;2.80;;;23.90;99.90;;;;;;5014182;28;20195;-90
2023/12/09 11:55:55;;;;;;;13.30;2.97;;;23.90;99.90;;;;;;5014369;28;20286;-85
2023/12/09 11:58:26;;;;;;;11.45;2.97;;;23.80;99.90;;;;;;5013731;28;20203;-80
2023/12/09 12:00:57;;;;;;;14.70;3.10;;;23.80;99.90;;;;;;5014600;28;20218;-87
2023/12/09 12:03:28;;;;;;;12.48;2.97;;;23.80;99.90;;;;;;5014479;28;20217;-81
2023/12/09 12:05:58;;;;;;;11.05;2.55;;;23.70;99.90;;;;;;5007832;28;20203;-84
2023/12/09 12:08:31;;;;;;;12.77;2.67;;;23.60;99.90;;;;;;4997105;28;20239;-82
2023/12/09 12:11:03;;;;;;;16.52;3.13;;;23.60;99.90;;;;;;5008939;28;20210;-83
2023/12/09 12:13:34;;;;;;;13.48;3.30;;;23.60;99.90;;;;;;5013107;28;20558;-84
2023/12/09 12:16:05;;;;;;;17.33;3.10;;;23.50;99.90;;;;;;5013613;28;20209;-85
2023/12/09 12:18:37;;;;;;;14.95;3.30;;;23.50;99.90;;;;;;5013856;28;20289;-90
2023/12/09 12:21:09;;;;;;;13.85;3.10;;;23.30;99.90;;;;;;5013525;28;20306;-77
2023/12/09 12:23:42;;;;;;;16.55;3.10;;;23.30;99.90;;;;;;5013837;28;20191;-84
2023/12/09 12:26:13;;;;;;;16.13;3.30;;;23.20;99.90;;;;;;5010641;28;20293;-82
2023/12/09 12:28:46;;;;;;;12.65;2.83;;;23.20;99.90;;;;;;5013385;28;20198;-78
2023/12/09 12:31:17;;;;;;;16.70;3.60;;;23.20;99.90;;;;;;5010991;28;20195;-83
2023/12/09 12:33:48;;;;;;;12.98;3.05;;;23.10;99.90;;;;;;5013007;28;20286;-87
2023/12/09 12:36:20;;;;;;;11.50;2.65;;;23.10;99.90;;;;;;5007266;28;20201;-77
2023/12/09 12:38:52;;;;;;;13.63;2.70;;;23.10;99.90;;;;;;5009534;28;20199;-83
2023/12/09 12:41:23;;;;;;;11.38;2.50;;;23.10;99.90;;;;;;5015395;28;20333;-76
2023/12/09 12:43:54;;;;;;;13.40;2.42;;;23.00;99.90;;;;;;5013436;28;20197;-76
2023/12/09 12:46:25;;;;;;;9.57;2.13;;;23.00;99.90;;;;;;5010971;28;20246;-86
2023/12/09 12:48:56;;;;;;;7.53;1.90;;;23.00;99.90;;;;;;5002153;28;20289;-77
2023/12/09 12:51:27;;;;;;;6.90;1.92;;;23.00;99.90;;;;;;5011912;28;20306;-78
2023/12/09 12:54:00;;;;;;;5.70;1.60;;;22.90;99.90;;;;;;5013325;28;20195;-85
2023/12/09 12:56:31;;;;;;;8.02;1.63;;;22.90;99.90;;;;;;5013080;28;20209;-79
2023/12/09 12:59:02;;;;;;;10.13;2.08;;;22.90;99.90;;;;;;5012637;28;20286;-77
2023/12/09 13:01:35;;;;;;;7.70;1.70;;;22.90;99.90;;;;;;5007864;28;20643;-79
2023/12/09 13:04:06;;;;;;;7.88;1.70;;;22.80;99.90;;;;;;5010015;28;20227;-82
2023/12/09 13:06:37;;;;;;;8.75;1.88;;;22.70;99.90;;;;;;5011138;28;20282;-78
2023/12/09 13:09:11;;;;;;;8.80;1.70;;;22.60;99.90;;;;;;5010265;28;20247;-76
2023/12/09 13:11:42;;;;;;;7.93;2.00;;;22.60;99.90;;;;;;5016048;28;20218;-83
2023/12/09 13:14:13;;;;;;;7.68;2.10;;;22.60;99.90;;;;;;5016030;28;20659;-77
2023/12/09 13:16:43;;;;;;;12.00;1.95;;;22.60;99.90;;;;;;5016380;28;20198;-79
2023/12/09 13:19:14;;;;;;;8.02;1.95;;;22.50;99.90;;;;;;5016731;28;20282;-76
2023/12/09 13:21:45;;;;;;;9.15;1.80;;;22.50;99.90;;;;;;5013348;28;20277;-77
2023/12/09 13:24:18;;;;;;;6.22;1.73;;;22.50;99.90;;;;;;5008399;28;20286;-76
2023/12/09 13:26:49;;;;;;;5.10;1.60;;;22.40;99.90;;;;;;5014284;28;20230;-78
2023/12/09 13:29:20;;;;;;;5.88;1.90;;;22.40;99.90;;;;;;5016912;28;20654;-77
2023/12/09 13:31:50;;;;;;;5.95;1.50;;;22.30;99.90;;;;;;5015493;28;20765;-79
2023/12/09 13:34:21;;;;;;;4.28;1.20;;;22.30;99.90;;;;;;5016643;28;20241;-85
2023/12/09 13:36:52;;;;;;;4.05;1.10;;;22.30;99.90;;;;;;5014029;28;20564;-77
2023/12/09 13:39:25;;;;;;;5.60;1.35;;;22.30;99.90;;;;;;5015706;28;20726;-76
2023/12/09 13:41:56;;;;;;;6.95;1.55;;;22.20;99.90;;;;;;5010658;28;20218;-76
2023/12/09 13:44:27;;;;;;;6.00;1.40;;;22.30;99.90;;;;;;5011860;28;20671;-79
2023/12/09 13:46:58;;;;;;;5.03;1.33;;;22.30;99.90;;;;;;5016406;28;20306;-78
2023/12/09 13:49:29;;;;;;;4.88;1.58;;;22.30;99.90;;;;;;5015832;28;20222;-76
2023/12/09 13:52:00;;;;;;;4.13;1.40;;;22.30;99.90;;;;;;5016229;28;20305;-83
2023/12/09 13:54:32;;;;;;;7.03;1.42;;;22.30;99.90;;;;;;5011758;28;20206;-75
2023/12/09 13:57:03;;;;;;;7.03;1.90;;;22.20;99.90;;;;;;5016164;28;20290;-77
2023/12/09 13:59:34;;;;;;;6.70;1.80;;;22.20;99.90;;;;;;5016039;28;20230;-76
2023/12/09 14:02:05;;;;;;;4.80;1.63;;;22.20;99.90;;;;;;5009188;28;20582;-79
2023/12/09 14:04:36;;;;;;;5.55;1.45;;;22.20;99.90;;;;;;5016243;28;20195;-77
2023/12/09 14:07:07;;;;;;;6.07;1.52;;;22.10;99.90;;;;;;5007079;28;20204;-74
2023/12/09 14:09:40;;;;;;;9.93;1.92;;;22.10;99.90;;;;;;5015678;28;20285;-77
2023/12/09 14:12:11;;;;;;;5.97;1.90;;;22.10;99.90;;;;;;5015569;28;20214;-81
2023/12/09 14:14:42;;;;;;;5.68;1.90;;;22.10;99.90;;;;;;5012456;28;20223;-76
2023/12/09 14:17:13;;;;;;;9.23;2.33;;;22.00;99.90;;;;;;5012010;28;20195;-81
2023/12/09 14:19:44;;;;;;;8.45;1.80;;;22.10;99.90;;;;;;5012650;28;20203;-81
2023/12/09 14:22:15;;;;;;;9.32;2.05;;;22.00;99.90;;;;;;5013433;28;20234;-76
2023/12/09 14:24:48;;;;;;;8.20;1.85;;;22.00;99.90;;;;;;5016076;28;20195;-77
2023/12/09 14:27:18;;;;;;;7.43;2.17;;;22.00;99.90;;;;;;5016188;28;20286;-77
2023/12/09 14:29:49;;;;;;;10.52;2.05;;;21.90;99.90;;;;;;5013190;28;20281;-76
2023/12/09 14:32:20;;;;;;;7.20;2.10;;;21.90;99.90;;;;;;5011251;28;20301;-76
2023/12/09 14:34:51;;;;;;;9.45;2.03;;;21.90;99.90;;;;;;5013661;28;20199;-76
2023/12/09 14:37:22;;;;;;;9.55;2.00;;;21.90;99.90;;;;;;5012431;28;20240;-81
2023/12/09 14:39:55;;;;;;;6.93;1.65;;;21.90;99.90;;;;;;5014451;28;20203;-77
2023/12/09 14:42:25;;;;;;;10.88;1.90;;;21.90;99.90;;;;;;5009262;28;20199;-77
2023/12/09 14:44:56;;;;;;;7.63;1.92;;;21.90;99.90;;;;;;5015145;28;20217;-80
2023/12/09 14:47:27;;;;;;;9.10;2.15;;;21.80;99.90;;;;;;5014488;28;20330;-75
2023/12/09 14:49:58;;;;;;;8.68;2.08;;;21.80;99.90;;;;;;5005769;28;20206;-75
2023/12/09 14:52:29;;;;;;;8.68;2.20;;;21.80;99.90;;;;;;5007550;28;20678;-76
2023/12/09 14:55:01;;;;;;;8.27;1.95;;;21.70;99.90;;;;;;5015157;28;20289;-76
2023/12/09 14:57:32;;;;;;;7.65;2.22;;;21.80;99.90;;;;;;5002570;28;20701;-86
2023/12/09 15:00:03;;;;;;;11.10;2.30;;;21.70;99.90;;;;;;5014551;28;20198;-77
2023/12/09 15:02:34;;;;;;;8.63;2.00;;;21.70;99.90;;;;;;5015951;28;20654;-76
2023/12/09 15:05:05;;;;;;;12.38;2.40;;;21.70;99.90;;;;;;5013796;28;20234;-80
2023/12/09 15:07:36;;;;;;;10.90;2.00;;;21.70;99.90;;;;;;5009613;28;20202;-76
2023/12/09 15:10:10;;;;;;;9.77;1.90;;;21.70;99.90;;;;;;5006998;28;20268;-79
2023/12/09 15:12:42;;;;;;;6.90;1.83;;;21.70;99.90;;;;;;5013413;28;20764;-83
2023/12/09 15:15:13;;;;;;;7.72;2.08;;;21.60;99.90;;;;;;5014161;28;20250;-78
2023/12/09 15:17:44;;;;;;;6.15;1.70;;;21.60;99.90;;;;;;5014736;28;20540;-82
2023/12/09 15:20:15;;;;;;;8.48;1.77;;;21.70;99.90;;;;;;5014645;28;20226;-79
2023/12/09 15:22:46;;;;;;;6.65;2.08;;;21.60;99.90;;;;;;5014498;28;20198;-86
2023/12/09 15:25:19;;;;;;;6.93;1.60;;;21.60;99.90;;;;;;5014402;28;20274;-87
2023/12/09 15:27:50;;;;;;;9.13;1.98;;;21.70;99.90;;;;;;5014727;28;20205;-79
2023/12/09 15:30:22;;;;;;;5.85;1.60;;;21.60;99.90;;;;;;5014388;28;20201;-83
2023/12/09 15:32:53;;;;;;;5.15;1.40;;;21.60;99.90;;;;;;5007553;28;20241;-81
2023/12/09 15:35:23;;;;;;;7.63;1.60;;;21.60;99.90;;;;;;5014224;28;20749;-84
2023/12/09 15:37:54;;;;;;;9.00;1.80;;;21.60;99.90;;;;;;5010240;28;20231;-81
2023/12/09 15:40:27;;;;;;;4.63;1.20;;;21.60;99.90;;;;;;5012711;28;20223;-92
2023/12/09 15:42:58;;;;;;;6.75;1.67;;;21.60;99.90;;;;;;5014019;28;20237;-76
2023/12/09 15:45:29;;;;;;;10.23;1.73;;;21.60;99.90;;;;;;5004568;28;20277;-79
2023/12/09 15:48:00;;;;;;;9.07;1.80;;;21.60;99.90;;;;;;5013526;28;20333;-80
2023/12/09 15:50:32;;;;;;;8.80;1.90;;;21.70;99.90;;;;;;5014378;28;20217;-84
2023/12/09 15:53:03;;;;;;;9.52;2.30;;;21.70;99.90;;;;;;5014208;28;20246;-83
2023/12/09 15:55:35;;;;;;;8.80;1.88;;;21.70;99.90;;;;;;5014266;28;20285;-79
2023/12/09 15:58:06;;;;;;;8.13;1.85;;;21.70;99.90;;;;;;5013466;28;20205;-81
2023/12/09 16:00:37;;;;;;;7.95;1.55;;;21.70;99.90;;;;;;5011448;28;20272;-78
2023/12/09 16:03:09;;;;;;;8.02;2.00;;;21.70;99.90;;;;;;5012981;28;20195;-82
2023/12/09 16:05:40;;;;;;;7.50;2.00;;;21.80;99.90;;;;;;5013288;28;20191;-80
2023/12/09 16:08:11;;;;;;;6.93;1.65;;;21.70;99.90;;;;;;5013779;28;20237;-82
2023/12/09 16:10:44;;;;;;;9.35;1.83;;;21.60;99.90;;;;;;5007859;28;20207;-82
2023/12/09 16:13:15;;;;;;;10.38;2.20;;;21.60;99.90;;;;;;5011016;28;20219;-77
2023/12/09 16:15:46;;;;;;;8.00;1.60;;;21.60;99.90;;;;;;5012156;28;20187;-85
2023/12/09 16:18:16;;;;;;;9.25;1.83;;;21.60;99.90;;;;;;5012098;28;20191;-83
2023/12/09 16:20:47;;;;;;;5.10;1.23;;;21.60;99.90;;;;;;5014422;28;20282;-82
2023/12/09 16:23:18;;;;;;;7.47;1.45;;;21.50;99.90;;;;;;5013725;28;20201;-77
2023/12/09 16:25:51;;;;;;;9.18;1.65;;;21.50;99.90;;;;;;5014121;28;20285;-83
2023/12/09 16:28:22;;;;;;;8.80;1.92;;;21.50;99.90;;;;;;5013370;28;20195;-82
2023/12/09 16:30:55;;;;;;;6.95;1.60;;;21.50;99.90;;;;;;5009935;28;20206;-85
2023/12/09 16:33:25;;;;;;;11.13;2.20;;;21.50;99.90;;;;;;5012928;28;20214;-76
2023/12/09 16:35:56;;;;;;;6.82;1.55;;;21.50;99.90;;;;;;5013772;28;20285;-76
2023/12/09 16:38:27;;;;;;;10.15;1.80;;;21.50;99.90;;;;;;5013644;28;20194;-82
2023/12/09 16:41:00;;;;;;;8.38;1.70;;;21.50;99.90;;;;;;5013703;28;20278;-77
2023/12/09 16:43:31;;;;;;;6.70;1.33;;;21.50;99.90;;;;;;5013232;28;20647;-81
2023/12/09 16:46:01;;;;;;;10.75;2.30;;;21.50;99.90;;;;;;5013436;28;20305;-81
2023/12/09 16:48:32;;;;;;;10.85;2.10;;;21.50;99.90;;;;;;5013447;28;20241;-83
2023/12/09 16:51:03;;;;;;;5.55;1.50;;;21.40;99.90;;;;;;5013554;28;20274;-80
2023/12/09 16:53:34;;;;;;;9.95;1.80;;;21.40;99.90;;;;;;5013889;28;20246;-82
2023/12/09 16:56:07;;;;;;;7.72;1.70;;;21.40;99.90;;;;;;5013595;28;20201;-81
2023/12/09 16:58:38;;;;;;;6.28;1.90;;;21.40;99.90;;;;;;5009809;28;20218;-84
2023/12/09 17:01:09;;;;;;;8.00;1.38;;;21.40;99.90;;;;;;5013230;28;20253;-85
2023/12/09 17:03:40;;;;;;;7.97;1.90;;;21.40;99.90;;;;;;5012402;28;20202;-79
2023/12/09 17:06:11;;;;;;;7.65;1.90;;;21.40;99.90;;;;;;5012664;28;20616;-82
2023/12/09 17:08:42;;;;;;;9.27;2.10;;;21.40;99.90;;;;;;5012036;28;20184;-80
2023/12/09 17:11:15;;;;;;;7.32;1.75;;;21.40;99.90;;;;;;5013516;28;20212;-84
2023/12/09 17:13:45;;;;;;;8.25;1.70;;;21.40;99.90;;;;;;5013113;28;20222;-82
2023/12/09 17:16:16;;;;;;;4.45;1.58;;;21.40;99.90;;;;;;5013331;28;20195;-80
2023/12/09 17:18:47;;;;;;;6.15;1.40;;;21.40;99.90;;;;;;5013319;28;20230;-83
2023/12/09 17:21:19;;;;;;;5.07;1.33;;;21.50;99.90;;;;;;5013044;28;20610;-81
2023/12/09 17:23:50;;;;;;;6.38;1.88;;;21.50;99.90;;;;;;5013269;28;20187;-80
2023/12/09 17:26:22;;;;;;;6.70;1.30;;;21.50;99.90;;;;;;5013234;28;20201;-81
2023/12/09 17:28:54;;;;;;;6.70;1.60;;;21.50;99.90;;;;;;5013232;28;20187;-80
2023/12/09 17:31:25;;;;;;;5.40;1.20;;;21.50;99.90;;;;;;5013084;28;20199;-83
2023/12/09 17:33:56;;;;;;;5.35;1.25;;;21.50;99.90;;;;;;5013480;28;20261;-80
2023/12/09 17:36:27;;;;;;;6.85;1.30;;;21.50;99.90;;;;;;5013152;28;20282;-82
2023/12/09 17:38:58;;;;;;;4.82;1.17;;;21.50;99.90;;;;;;5013078;28;20191;-83
2023/12/09 17:41:31;;;;;;;6.07;1.40;;;21.60;99.90;;;;;;5013286;28;20624;-82
2023/12/09 17:44:02;;;;;;;4.93;1.30;;;21.60;99.90;;;;;;5012958;28;20540;-84
2023/12/09 17:46:33;;;;;;;5.53;1.20;;;21.60;99.90;;;;;;5012633;28;20223;-79
2023/12/09 17:49:04;;;;;;;6.65;1.35;;;21.50;99.90;;;;;;5012605;28;20235;-81
2023/12/09 17:51:35;;;;;;;7.22;1.60;;;21.60;99.90;;;;;;5013065;28;20742;-78
2023/12/09 17:54:06;;;;;;;7.10;1.40;;;21.50;99.90;;;;;;5012783;28;20863;-81
2023/12/09 17:56:38;;;;;;;5.60;1.50;;;21.50;99.90;;;;;;5015003;28;20270;-79
2023/12/09 17:59:09;;;;;;;8.10;1.90;;;21.60;99.90;;;;;;5016612;28;20614;-86
2023/12/09 18:01:41;;;;;;;7.50;1.50;;;21.60;99.90;;;;;;5016028;28;20692;-76
2023/12/09 18:04:12;;;;;;;7.20;1.60;;;21.60;99.90;;;;;;5016427;28;20643;-76